Carolina, Rhode Island
Current Conditions -  °F | °C
As of 5:53 PM on Thursday 20 Nov 2014 (Local Time) from KWST Reporting Station
Broken Clouds Broken Clouds  
Wind Chill: 38°   Ceiling: 6000
Heat Index: 43°   Visibility: 10mi
Dew Point: 24°   Wind: 8mph
Humidity: 47%   Direction: 260°W
Pressure: 29.85"   Gusts: NA
Location:  41.46°N, 71.66°W
Report Text: KWST 202253Z AUTO 26007KT 10SM SCT050 BKN060 06/M04 A2985 RMK AO2 PK WND 26030/2159 SLP110 T00611044
Loading
Personal Weather Stations






























Interactive Weather Map New forecast layout! Learn more

10-Day Weather Forecast

Advertisements
Track Severe Weather on mobile